Αρχική σελίδα
METAR-TAF:

METAR-TAF

Αεροδρόμια :

Aklavik, Βορειοδυτικά Εδάφη, Καναδάς

γεωγραφικό πλάτος: 68-13N, γεωγραφικό μήκος: 135-00W, υψόμετρο: 7 μ

Παρών καιρός

Η αναφορά έγινε 10 ώρες και 44 λεπτά πριν, στις 00:00 UTC
Άνεμος 6 kt από
Θερμοκρασία -21°C
Υγρασία 77%
Πίεση 999 hPa
Ορατότητα: 16.1 χλμ
Αρκετά νέφη σε ύψος 10000 πόδια
κρύσταλλοι πάγου

METAR: CYKD 130000Z 31006KT 10SM IC BKN100 M21/M24 A2949 RMK AC7 1.0/SNW CVR/MUCH LOOSE/LAST STFD OBS/NXT 131400Z SLP990

Χρόνος: 03:44 (10:44 UTC)


TAF: λείπει

Μετεωρολογικές αναφορές και προγνώσεις για περισσότερα από 4000 αεροδρόμια (δελτία METAR και TAF).

Οι διαθέσιμοι σταθμοί απεικονίζονται στο χάρτη με κίτρινες και κόκκινες κουκκίδες.

Μετακινήστε το ποντίκι πάνω από τις κουκκίδες για να δείτε το όνομα του σταθμού.

Στη συνέχεια, κάντε κλικ για να δείτε τις μετεωρολογικές αναφορές και τις προγνώσεις καιρού.

Για να αλλάξετε το χάρτη: κάντε κλικ στα πράσινα κουμπιά με τον μαύρο σταυρό για να ζουμάρετε, στο πράσινο κουμπί με την παύλα για να αφαιρέσετε το ζουμ ή στα πράσινα βέλη για να αντιπαραβάλλετε χάρτες.


METAR-TAF: